Time;durP1;ratioP1;P1;durP2;ratioP2;P2;SDS_P1;SDS_P2;PMS_P1;PMS_P2;Temp;Humidity;BMP_temperature;BMP_pressure;BME280_temperature;BME280_humidity;BME280_pressure;Samples;Min_cycle;Max_cycle;Signal;HPM_P1;HPM_P2
2022/06/05 00:00:03;;;;;;;11.68;8.52;;;11.60;99.90;;;;;;5033104;28;20073;-83
2022/06/05 00:02:48;;;;;;;10.45;8.02;;;11.50;99.90;;;;;;5016915;28;20444;-83
2022/06/05 00:05:22;;;;;;;13.20;8.88;;;11.60;99.90;;;;;;5033558;28;20045;-83
2022/06/05 00:07:51;;;;;;;13.60;9.35;;;11.50;99.90;;;;;;5033664;28;20041;-82
2022/06/05 00:10:31;;;;;;;13.75;9.15;;;11.50;99.90;;;;;;5016557;28;20454;-82
2022/06/05 00:13:04;;;;;;;15.27;10.23;;;11.60;99.90;;;;;;5030593;28;20481;-83
2022/06/05 00:15:30;;;;;;;15.25;9.25;;;11.60;99.90;;;;;;5036312;28;20049;-83
2022/06/05 00:17:55;;;;;;;13.52;9.00;;;11.50;99.90;;;;;;5052913;28;20058;-82
2022/06/05 00:20:22;;;;;;;12.10;9.15;;;11.50;99.90;;;;;;5036215;28;20067;-82
2022/06/05 00:22:48;;;;;;;17.52;9.40;;;11.50;99.90;;;;;;5052871;28;20123;-85
2022/06/05 00:25:14;;;;;;;14.52;9.57;;;11.50;99.90;;;;;;5052753;28;20084;-82
2022/06/05 00:27:48;;;;;;;12.70;9.50;;;11.50;99.90;;;;;;5019628;28;20051;-83
2022/06/05 00:30:22;;;;;;;18.25;10.25;;;11.50;99.90;;;;;;5036588;28;20040;-82
2022/06/05 00:32:56;;;;;;;15.55;9.82;;;11.50;99.90;;;;;;5036556;28;20097;-83
2022/06/05 00:35:22;;;;;;;14.23;9.38;;;11.50;99.90;;;;;;5035991;28;20044;-82
2022/06/05 00:38:02;;;;;;;17.85;10.35;;;11.50;99.90;;;;;;5052706;28;20056;-83
2022/06/05 00:40:38;;;;;;;17.30;10.20;;;11.50;99.90;;;;;;5036001;28;20044;-82
2022/06/05 00:43:09;;;;;;;15.98;10.00;;;11.50;99.90;;;;;;5052759;28;20040;-83
2022/06/05 00:45:35;;;;;;;16.73;9.73;;;11.90;99.90;;;;;;5036105;28;20040;-83
2022/06/05 00:48:01;;;;;;;;;;;11.50;99.90;;;;;;5053272;28;20040;-83
2022/06/05 00:50:30;;;;;;;16.10;10.48;;;11.50;99.90;;;;;;5035683;28;19923;-82
2022/06/05 00:52:59;;;;;;;17.50;10.80;;;11.50;99.90;;;;;;5035934;28;20037;-82
2022/06/05 00:55:29;;;;;;;16.77;10.30;;;11.50;99.90;;;;;;5052075;28;20253;-83
2022/06/05 00:57:57;;;;;;;21.13;10.15;;;11.50;99.90;;;;;;5059855;28;20044;-83
2022/06/05 01:00:31;;;;;;;17.60;10.05;;;11.40;99.90;;;;;;5051739;28;20040;-82
2022/06/05 01:02:59;;;;;;;19.23;10.43;;;11.40;99.90;;;;;;5036057;28;20452;-82
2022/06/05 01:05:26;;;;;;;19.10;11.43;;;11.50;99.90;;;;;;5052168;28;20124;-83
2022/06/05 01:07:52;;;;;;;19.02;10.50;;;11.50;99.90;;;;;;5052273;28;20049;-84
2022/06/05 01:10:20;;;;;;;16.38;10.05;;;11.40;99.90;;;;;;5019143;28;20080;-83
2022/06/05 01:13:26;;;;;;;16.15;11.00;;;11.40;99.90;;;;;;5035578;28;20065;-83
2022/06/05 01:16:01;;;;;;;17.88;10.25;;;11.40;99.90;;;;;;5052320;28;20051;-83
2022/06/05 01:18:51;;;;;;;19.65;10.95;;;11.50;99.90;;;;;;5052186;28;20124;-82
2022/06/05 01:21:54;;;;;;;20.05;11.15;;;11.40;99.90;;;;;;5052238;28;20043;-83
2022/06/05 01:24:42;;;;;;;20.02;11.23;;;11.50;99.90;;;;;;5052256;28;20132;-83
2022/06/05 01:27:14;;;;;;;17.45;11.20;;;11.50;99.90;;;;;;5035841;28;20049;-83
2022/06/05 01:30:01;;;;;;;15.90;9.98;;;11.40;99.90;;;;;;5052025;28;20041;-83
2022/06/05 01:32:43;;;;;;;19.25;10.20;;;11.50;99.90;;;;;;5051601;28;20040;-83
2022/06/05 01:35:18;;;;;;;19.95;9.65;;;11.50;99.90;;;;;;5035425;28;20037;-83
2022/06/05 01:37:51;;;;;;;16.17;10.40;;;11.50;99.90;;;;;;5035714;28;20093;-83
2022/06/05 01:40:20;;;;;;;16.30;9.77;;;11.50;99.90;;;;;;5035258;28;20033;-82
2022/06/05 01:42:59;;;;;;;15.45;9.65;;;11.50;99.90;;;;;;5042613;28;20048;-82
2022/06/05 01:45:47;;;;;;;15.43;10.25;;;11.50;99.90;;;;;;5035128;28;20041;-82
2022/06/05 01:48:23;;;;;;;15.32;10.07;;;11.50;99.90;;;;;;5035552;28;20045;-83
2022/06/05 01:50:55;;;;;;;16.98;10.52;;;11.50;99.90;;;;;;5052003;28;20115;-84
2022/06/05 01:53:29;;;;;;;20.85;10.80;;;11.40;99.90;;;;;;5051926;28;20037;-83
2022/06/05 01:56:01;;;;;;;18.02;10.70;;;11.50;99.90;;;;;;5053812;28;20106;-83
2022/06/05 01:59:09;;;;;;;17.25;10.45;;;11.50;99.90;;;;;;5035245;28;20036;-84
2022/06/05 02:01:37;;;;;;;;;;;11.50;99.90;;;;;;5006195;28;20041;-82
2022/06/05 02:04:21;;;;;;;15.73;10.10;;;11.50;99.90;;;;;;5048971;28;19976;-82
2022/06/05 02:06:58;;;;;;;16.83;9.35;;;11.50;99.90;;;;;;5053919;28;20048;-83
2022/06/05 02:09:34;;;;;;;17.45;10.45;;;11.50;99.90;;;;;;5038687;28;20041;-83
2022/06/05 02:12:02;;;;;;;17.00;10.25;;;11.50;99.90;;;;;;5055431;28;20408;-83
2022/06/05 02:14:29;;;;;;;17.60;10.32;;;11.50;99.90;;;;;;5054631;28;20049;-82
2022/06/05 02:16:55;;;;;;;17.15;10.23;;;11.50;99.90;;;;;;5055595;28;20033;-83
2022/06/05 02:19:22;;;;;;;16.70;10.30;;;11.50;99.90;;;;;;5005856;28;20044;-82
2022/06/05 02:21:48;;;;;;;19.02;9.48;;;11.50;99.90;;;;;;5038408;28;20476;-83
2022/06/05 02:24:15;;;;;;;14.23;10.18;;;11.50;99.90;;;;;;5038687;28;20037;-83
2022/06/05 02:26:41;;;;;;;17.00;9.95;;;11.50;99.90;;;;;;5005627;28;20052;-83
2022/06/05 02:29:22;;;;;;;18.75;10.23;;;11.50;99.90;;;;;;5054959;28;20127;-84
2022/06/05 02:32:06;;;;;;;16.35;9.57;;;11.50;99.90;;;;;;5054777;28;20103;-83
2022/06/05 02:34:48;;;;;;;15.55;10.73;;;11.60;99.90;;;;;;5054909;28;20037;-82
2022/06/05 02:37:16;;;;;;;16.05;10.25;;;11.60;99.90;;;;;;5055103;28;20048;-84
2022/06/05 02:40:09;;;;;;;22.02;10.40;;;11.50;99.90;;;;;;5038651;28;20037;-83
2022/06/05 02:42:45;;;;;;;19.13;10.65;;;11.50;99.90;;;;;;5038351;28;20489;-82
2022/06/05 02:45:42;;;;;;;19.67;10.48;;;11.50;99.90;;;;;;5054628;28;20033;-82
2022/06/05 02:48:14;;;;;;;16.48;9.82;;;11.50;99.90;;;;;;5054732;28;20049;-83
2022/06/05 02:50:44;;;;;;;18.23;9.73;;;11.50;99.90;;;;;;5037915;28;20052;-83
2022/06/05 02:53:11;;;;;;;18.17;10.30;;;11.60;99.90;;;;;;5054986;28;20041;-84
2022/06/05 02:55:37;;;;;;;20.20;10.50;;;11.50;99.90;;;;;;5037450;28;20072;-83
2022/06/05 02:58:03;;;;;;;20.83;10.75;;;11.50;99.90;;;;;;5037828;28;20044;-83
2022/06/05 03:00:32;;;;;;;20.42;10.70;;;11.50;99.90;;;;;;5037745;28;20033;-83
2022/06/05 03:05:43;;;;;;;18.38;10.77;;;11.50;99.90;;;;;;5054414;28;20107;-82
2022/06/05 03:08:13;;;;;;;16.83;10.27;;;11.60;99.90;;;;;;5038203;28;20455;-82
2022/06/05 03:10:40;;;;;;;24.00;11.10;;;11.50;99.90;;;;;;5054442;28;20059;-84
2022/06/05 03:13:05;;;;;;;20.00;11.18;;;11.60;99.90;;;;;;5021279;28;20053;-82
2022/06/05 03:15:32;;;;;;;18.95;11.20;;;11.60;99.90;;;;;;5020762;28;20100;-83
2022/06/05 03:17:58;;;;;;;21.45;11.55;;;11.60;99.90;;;;;;5037815;28;20501;-82
2022/06/05 03:20:24;;;;;;;18.38;11.63;;;11.60;99.90;;;;;;5053835;28;20048;-82
2022/06/05 03:22:51;;;;;;;16.80;11.48;;;11.60;99.90;;;;;;5054338;28;20044;-82
2022/06/05 03:25:20;;;;;;;20.27;11.25;;;11.60;99.90;;;;;;5021097;28;20126;-82
2022/06/05 03:27:46;;;;;;;21.17;11.57;;;11.60;99.90;;;;;;5054431;28;20055;-82
2022/06/05 03:30:13;;;;;;;18.85;11.48;;;11.60;99.90;;;;;;5037568;28;20047;-83
2022/06/05 03:32:39;;;;;;;18.17;11.75;;;11.60;99.90;;;;;;5053829;28;20397;-83
2022/06/05 03:35:06;;;;;;;24.33;11.82;;;11.70;99.90;;;;;;5054355;28;20051;-83
2022/06/05 03:37:32;;;;;;;21.17;11.60;;;11.70;99.90;;;;;;5037241;28;20033;-83
2022/06/05 03:39:58;;;;;;;19.13;11.32;;;11.70;99.90;;;;;;5037466;28;20041;-83
2022/06/05 03:42:24;;;;;;;25.30;12.52;;;11.70;99.90;;;;;;5036980;28;20045;-82
2022/06/05 03:44:50;;;;;;;19.48;11.63;;;11.70;99.90;;;;;;5037451;28;20044;-84
2022/06/05 03:47:16;;;;;;;20.35;11.63;;;11.80;99.90;;;;;;5053570;28;20047;-83
2022/06/05 03:49:41;;;;;;;24.75;12.10;;;11.70;99.90;;;;;;5053374;28;20509;-83
2022/06/05 03:52:09;;;;;;;20.05;12.40;;;11.80;99.90;;;;;;5053148;28;20426;-83
2022/06/05 03:54:35;;;;;;;19.70;10.95;;;11.80;99.90;;;;;;5036527;28;20045;-83
2022/06/05 03:57:02;;;;;;;;;;;11.80;99.90;;;;;;5053681;28;20072;-83
2022/06/05 03:59:28;;;;;;;21.17;11.35;;;11.80;99.90;;;;;;5037113;28;20307;-83
2022/06/05 04:01:53;;;;;;;18.67;12.20;;;11.80;99.90;;;;;;5036923;28;20037;-83
2022/06/05 04:04:19;;;;;;;21.85;12.85;;;11.80;99.90;;;;;;5036586;28;20041;-83
2022/06/05 04:06:44;;;;;;;21.97;11.83;;;11.90;99.90;;;;;;5053195;28;20041;-83
2022/06/05 04:09:10;;;;;;;19.50;11.40;;;11.90;99.90;;;;;;5036695;28;20422;-83
2022/06/05 04:11:38;;;;;;;21.17;11.65;;;11.90;99.90;;;;;;5022872;28;20064;-83
2022/06/05 04:14:04;;;;;;;22.58;12.18;;;12.00;99.90;;;;;;5055953;28;20048;-83
2022/06/05 04:16:32;;;;;;;21.83;12.35;;;12.00;99.90;;;;;;5023770;28;20040;-83
2022/06/05 04:18:59;;;;;;;20.48;11.63;;;12.00;99.90;;;;;;5056456;28;20093;-84
2022/06/05 04:21:28;;;;;;;21.40;11.55;;;12.10;99.90;;;;;;5039726;28;20071;-82
2022/06/05 04:23:54;;;;;;;22.17;12.25;;;12.10;99.90;;;;;;5039783;28;20050;-82
2022/06/05 04:26:21;;;;;;;;;;;12.10;99.90;;;;;;5056301;28;20094;-83
2022/06/05 04:28:47;;;;;;;18.98;12.40;;;12.20;99.90;;;;;;5038956;28;19999;-83
2022/06/05 04:31:21;;;;;;;17.35;10.95;;;12.20;99.90;;;;;;5055883;28;20468;-83
2022/06/05 04:33:49;;;;;;;19.75;11.80;;;12.20;99.90;;;;;;5039366;28;20540;-83
2022/06/05 04:36:15;;;;;;;19.52;11.35;;;12.30;99.90;;;;;;5039080;28;20040;-81
2022/06/05 04:38:41;;;;;;;19.27;10.90;;;12.40;99.90;;;;;;5039191;28;20393;-83
2022/06/05 04:41:07;;;;;;;19.05;10.95;;;12.40;99.90;;;;;;5055373;28;20037;-83
2022/06/05 04:43:33;;;;;;;17.33;10.85;;;12.50;99.90;;;;;;5038663;28;20036;-83
2022/06/05 04:45:59;;;;;;;15.52;10.82;;;12.60;99.90;;;;;;5038983;28;20055;-83
2022/06/05 04:48:24;;;;;;;20.00;10.77;;;12.60;99.90;;;;;;5022616;28;20036;-82
2022/06/05 04:50:50;;;;;;;15.60;11.27;;;12.70;99.90;;;;;;5039007;28;20285;-83
2022/06/05 04:53:16;;;;;;;15.73;10.33;;;12.80;99.90;;;;;;5041792;28;20282;-83
2022/06/05 04:55:41;;;;;;;16.80;10.38;;;12.80;99.90;;;;;;5038540;28;20044;-83
2022/06/05 04:58:07;;;;;;;19.52;10.85;;;12.90;99.90;;;;;;5022623;28;20037;-83
2022/06/05 05:00:32;;;;;;;21.08;11.80;;;13.00;99.90;;;;;;5039237;28;20106;-83
2022/06/05 05:02:58;;;;;;;17.23;10.68;;;13.00;99.90;;;;;;5023067;28;20037;-83
2022/06/05 05:05:24;;;;;;;16.08;10.63;;;13.00;99.90;;;;;;5055655;28;20121;-83
2022/06/05 05:07:50;;;;;;;15.57;10.20;;;13.00;99.90;;;;;;5039099;28;20059;-83
2022/06/05 05:10:16;;;;;;;18.35;10.95;;;13.10;99.90;;;;;;5038735;28;20044;-83
2022/06/05 05:12:42;;;;;;;16.88;9.55;;;13.10;99.90;;;;;;5038647;28;20088;-83
2022/06/05 05:15:09;;;;;;;18.67;10.57;;;13.20;99.90;;;;;;5038504;28;20049;-83
2022/06/05 05:17:35;;;;;;;15.93;10.48;;;13.20;99.90;;;;;;5055491;28;20434;-83
2022/06/05 05:20:01;;;;;;;18.52;10.40;;;13.30;99.90;;;;;;5038913;28;20127;-83
2022/06/05 05:22:27;;;;;;;16.05;9.88;;;13.40;99.90;;;;;;5055317;28;20096;-83
2022/06/05 05:24:52;;;;;;;16.90;10.00;;;13.40;99.90;;;;;;5022156;28;20041;-83
2022/06/05 05:27:20;;;;;;;16.58;10.60;;;13.40;99.90;;;;;;5022400;28;20480;-83
2022/06/05 05:29:46;;;;;;;12.85;9.98;;;13.50;99.90;;;;;;5055192;28;20496;-83
2022/06/05 05:32:11;;;;;;;14.30;9.32;;;13.60;99.90;;;;;;5039121;28;20127;-83
2022/06/05 05:34:37;;;;;;;14.32;9.98;;;13.70;99.90;;;;;;5022164;28;20040;-83
2022/06/05 05:37:04;;;;;;;15.88;9.77;;;13.80;99.90;;;;;;5038984;28;20036;-83
2022/06/05 05:42:14;;;;;;;18.98;10.27;;;14.00;99.90;;;;;;5058331;28;20127;-84
2022/06/05 05:44:43;;;;;;;14.50;10.02;;;14.10;99.90;;;;;;5042354;28;20059;-83
2022/06/05 05:47:16;;;;;;;14.88;9.43;;;14.20;99.90;;;;;;5059467;28;20119;-84
2022/06/05 05:49:42;;;;;;;15.95;10.00;;;14.30;99.90;;;;;;5042686;28;20032;-84
2022/06/05 05:52:08;;;;;;;14.90;9.60;;;14.30;99.90;;;;;;5059614;28;20491;-84
2022/06/05 05:54:35;;;;;;;15.40;10.48;;;14.40;99.90;;;;;;5042377;28;20484;-83
2022/06/05 05:57:01;;;;;;;17.25;9.30;;;14.50;99.90;;;;;;5059256;28;20087;-83
2022/06/05 05:59:27;;;;;;;16.52;9.60;;;14.60;99.90;;;;;;5059052;28;20075;-83
2022/06/05 06:01:53;;;;;;;15.35;10.27;;;14.60;99.90;;;;;;5026459;28;20044;-83
2022/06/05 06:04:19;;;;;;;15.70;10.52;;;14.70;99.90;;;;;;5009783;28;20040;-83
2022/06/05 06:06:47;;;;;;;16.08;10.13;;;14.60;99.90;;;;;;5027949;28;20606;-84
2022/06/05 06:09:13;;;;;;;15.18;9.18;;;14.70;99.90;;;;;;5029388;28;20076;-84
2022/06/05 06:11:39;;;;;;;13.02;9.45;;;14.90;99.90;;;;;;5058869;28;20157;-84
2022/06/05 06:14:05;;;;;;;14.85;9.20;;;14.90;99.90;;;;;;5042687;28;20083;-84
2022/06/05 06:16:30;;;;;;;13.60;9.98;;;15.00;99.90;;;;;;5041947;28;20097;-83
2022/06/05 06:18:57;;;;;;;16.05;9.13;;;15.00;99.90;;;;;;5025587;28;20123;-84
2022/06/05 06:21:23;;;;;;;;;;;15.10;99.90;;;;;;5026000;28;20043;-83
2022/06/05 06:23:49;;;;;;;12.40;9.52;;;15.10;99.90;;;;;;5059236;28;20338;-83
2022/06/05 06:26:15;;;;;;;12.85;9.15;;;15.10;99.90;;;;;;5046135;28;20492;-83
2022/06/05 06:28:41;;;;;;;11.18;8.90;;;15.20;99.90;;;;;;5041884;28;20043;-83
2022/06/05 06:31:11;;;;;;;14.10;8.52;;;15.30;99.90;;;;;;5041773;28;20051;-83
2022/06/05 06:33:37;;;;;;;12.65;9.07;;;15.40;99.90;;;;;;5058193;28;20093;-84
2022/06/05 06:36:05;;;;;;;12.70;8.50;;;15.40;99.90;;;;;;5042265;28;20534;-84
2022/06/05 06:38:32;;;;;;;15.40;9.13;;;15.50;99.90;;;;;;5058128;28;20076;-84
2022/06/05 06:41:18;;;;;;;13.18;9.15;;;15.70;99.90;;;;;;5058286;28;20045;-83
2022/06/05 06:43:46;;;;;;;13.88;8.27;;;15.80;99.90;;;;;;5041647;28;20051;-83
2022/06/05 06:46:12;;;;;;;12.30;8.65;;;15.90;99.90;;;;;;5058489;28;20162;-83
2022/06/05 06:48:38;;;;;;;12.13;8.52;;;16.00;99.90;;;;;;5058321;28;20048;-83
2022/06/05 06:51:06;;;;;;;11.23;8.63;;;16.10;99.90;;;;;;5025072;28;20459;-83
2022/06/05 06:53:33;;;;;;;12.95;8.75;;;16.20;99.90;;;;;;5024734;28;20051;-83
2022/06/05 06:56:05;;;;;;;12.80;8.93;;;16.30;99.90;;;;;;5041506;28;20051;-84
2022/06/05 06:58:31;;;;;;;12.68;8.82;;;16.30;99.90;;;;;;5041076;28;20033;-84
2022/06/05 07:00:56;;;;;;;12.70;8.70;;;16.40;99.90;;;;;;5041759;28;20043;-84
2022/06/05 07:03:22;;;;;;;13.48;9.60;;;16.50;99.90;;;;;;5024741;28;20062;-83
2022/06/05 07:05:48;;;;;;;13.52;8.80;;;16.50;99.90;;;;;;5008646;28;20105;-83
2022/06/05 07:08:13;;;;;;;10.98;7.88;;;16.70;99.90;;;;;;5058133;28;20084;-83
2022/06/05 07:10:39;;;;;;;13.05;8.50;;;16.80;99.90;;;;;;5045829;28;20047;-83
2022/06/05 07:13:05;;;;;;;12.32;8.20;;;16.80;99.90;;;;;;5057711;28;20067;-83
2022/06/05 07:15:34;;;;;;;12.65;8.88;;;16.90;99.90;;;;;;5041088;28;20045;-83
2022/06/05 07:18:07;;;;;;;13.10;8.10;;;17.10;99.90;;;;;;5057937;28;20032;-83
2022/06/05 07:20:34;;;;;;;12.18;8.35;;;17.20;99.90;;;;;;5041368;28;20115;-83
2022/06/05 07:23:01;;;;;;;10.40;8.38;;;17.30;99.90;;;;;;5041014;28;20052;-84
2022/06/05 07:25:28;;;;;;;12.18;8.52;;;17.50;99.90;;;;;;5057278;28;20050;-83
2022/06/05 07:27:54;;;;;;;12.52;8.20;;;17.50;99.90;;;;;;5040981;28;20531;-83
2022/06/05 07:30:20;;;;;;;11.00;8.25;;;17.60;99.90;;;;;;5024549;28;20044;-84
2022/06/05 07:32:47;;;;;;;9.55;7.88;;;17.70;99.90;;;;;;5057353;28;20040;-83
2022/06/05 07:35:13;;;;;;;10.98;8.13;;;17.70;99.90;;;;;;5040688;28;20132;-83
2022/06/05 07:37:40;;;;;;;12.68;8.88;;;17.90;99.90;;;;;;5032602;28;20036;-83
2022/06/05 07:40:06;;;;;;;;;;;18.10;99.90;;;;;;5047108;28;20089;-83
2022/06/05 07:42:35;;;;;;;11.32;7.78;;;18.20;99.90;;;;;;5040689;28;19969;-83
2022/06/05 07:45:00;;;;;;;10.52;7.63;;;18.30;99.90;;;;;;5024549;28;20200;-83
2022/06/05 07:47:26;;;;;;;9.25;7.50;;;18.40;99.90;;;;;;5057295;28;20083;-83
2022/06/05 07:49:52;;;;;;;;;;;18.60;99.90;;;;;;5057647;28;20044;-84
2022/06/05 07:55:02;;;;;;;11.50;8.10;;;18.90;99.90;;;;;;5042565;28;20055;-83
2022/06/05 07:57:28;;;;;;;10.10;7.25;;;19.10;99.90;;;;;;5040295;28;20048;-83
2022/06/05 07:59:54;;;;;;;10.80;7.40;;;19.30;99.90;;;;;;5023552;28;20033;-82
2022/06/05 08:02:23;;;;;;;9.38;7.13;;;19.50;99.90;;;;;;5023214;28;20036;-83
2022/06/05 08:04:50;;;;;;;9.00;6.82;;;19.60;99.90;;;;;;5039352;28;20045;-84
2022/06/05 08:07:19;;;;;;;9.50;7.10;;;19.70;99.90;;;;;;5007457;28;20098;-84
2022/06/05 08:09:45;;;;;;;7.88;6.38;;;19.80;99.90;;;;;;5057029;28;20041;-83
2022/06/05 08:12:13;;;;;;;10.68;6.45;;;19.70;99.90;;;;;;5056464;28;20060;-83
2022/06/05 08:14:41;;;;;;;7.40;6.00;;;19.90;99.90;;;;;;5056055;28;20037;-84
2022/06/05 08:17:11;;;;;;;10.27;6.50;;;20.00;99.90;;;;;;5023890;28;20138;-84
2022/06/05 08:19:38;;;;;;;8.20;5.97;;;20.20;99.90;;;;;;5040236;28;20389;-84
2022/06/05 08:22:05;;;;;;;6.82;5.90;;;20.40;99.90;;;;;;5039845;28;20564;-83
2022/06/05 08:24:30;;;;;;;;;;;20.50;99.90;;;;;;5056154;28;20127;-83
2022/06/05 08:26:56;;;;;;;7.07;5.68;;;20.60;99.90;;;;;;5056370;28;19966;-84
2022/06/05 08:29:21;;;;;;;7.95;5.78;;;20.80;99.90;;;;;;5039874;28;20551;-83
2022/06/05 08:31:47;;;;;;;6.03;5.30;;;21.00;99.90;;;;;;5039977;28;20060;-83
2022/06/05 08:34:14;;;;;;;6.97;5.38;;;21.10;99.90;;;;;;5056051;28;20080;-83
2022/06/05 08:36:41;;;;;;;8.63;5.70;;;21.30;99.90;;;;;;5039284;28;20045;-84
2022/06/05 08:42:20;;;;;;;6.47;5.18;;;21.50;99.90;;;;;;5060281;28;20037;-83
2022/06/05 08:44:53;;;;;;;8.80;5.30;;;21.60;99.90;;;;;;5039183;28;20044;-83
2022/06/05 08:47:27;;;;;;;8.50;5.80;;;21.70;99.90;;;;;;5039681;28;20044;-84
2022/06/05 08:49:58;;;;;;;7.63;5.97;;;21.70;99.90;;;;;;5057827;28;20067;-84
2022/06/05 08:52:38;;;;;;;7.95;5.72;;;21.80;99.90;;;;;;5058337;28;20048;-83
2022/06/05 08:55:19;;;;;;;6.85;5.28;;;21.70;99.90;;;;;;5055976;28;20052;-83
2022/06/05 08:58:00;;;;;;;7.22;5.72;;;21.70;99.90;;;;;;5055755;28;20043;-83
2022/06/05 09:00:34;;;;;;;9.18;5.82;;;21.90;99.90;;;;;;5055158;28;20044;-83
2022/06/05 09:03:11;;;;;;;7.38;5.93;;;21.80;99.90;;;;;;5055399;28;20085;-83
2022/06/05 09:05:42;;;;;;;;;;;21.70;99.90;;;;;;5055742;28;20051;-83
2022/06/05 09:08:18;;;;;;;6.70;5.47;;;21.90;99.90;;;;;;5055638;28;19927;-83
2022/06/05 09:10:49;;;;;;;7.50;5.53;;;22.00;99.90;;;;;;5038545;28;20075;-83
2022/06/05 09:13:23;;;;;;;9.45;5.65;;;21.90;99.90;;;;;;5035217;28;20052;-83
2022/06/05 09:15:59;;;;;;;8.70;5.55;;;22.00;99.90;;;;;;5056607;28;20104;-84
2022/06/05 09:18:29;;;;;;;6.82;5.63;;;22.00;99.90;;;;;;5055074;28;20037;-83
2022/06/05 09:20:57;;;;;;;6.03;5.43;;;22.00;99.90;;;;;;5052361;28;20044;-83
2022/06/05 09:23:29;;;;;;;8.00;6.05;;;22.00;99.90;;;;;;5035796;28;20098;-84
2022/06/05 09:26:07;;;;;;;6.47;5.80;;;22.00;99.90;;;;;;5052189;28;20158;-84
2022/06/05 09:28:39;;;;;;;7.18;5.93;;;22.10;99.90;;;;;;5035972;28;20044;-82
2022/06/05 09:31:30;;;;;;;8.57;5.70;;;22.10;99.90;;;;;;5052515;28;20048;-83
2022/06/05 09:33:59;;;;;;;7.55;5.10;;;22.20;99.90;;;;;;5035866;28;20480;-84
2022/06/05 09:36:27;;;;;;;6.25;5.22;;;22.30;99.90;;;;;;5034980;28;20044;-83
2022/06/05 09:39:11;;;;;;;6.55;5.28;;;22.40;99.90;;;;;;5035437;28;20033;-83
2022/06/05 09:42:18;;;;;;;7.68;5.15;;;22.70;99.90;;;;;;5035155;28;20039;-84
2022/06/05 09:45:18;;;;;;;6.18;4.93;;;22.70;99.90;;;;;;5016149;28;20136;-83
2022/06/05 09:48:14;;;;;;;7.03;5.15;;;23.00;99.90;;;;;;5051825;28;20048;-83
2022/06/05 09:50:41;;;;;;;6.35;4.75;;;23.40;99.90;;;;;;5035253;28;20036;-83
2022/06/05 09:53:15;;;;;;;7.07;5.80;;;23.50;99.90;;;;;;5052173;28;20041;-83
2022/06/05 09:56:17;;;;;;;8.48;5.03;;;23.70;99.90;;;;;;5051945;28;20041;-83
2022/06/05 09:59:09;;;;;;;6.95;5.00;;;23.80;99.90;;;;;;5035180;28;20037;-83
2022/06/05 10:01:54;;;;;;;5.85;4.63;;;23.80;99.90;;;;;;5035253;28;20056;-83
2022/06/05 10:04:21;;;;;;;6.25;4.95;;;23.90;99.90;;;;;;5052079;28;20039;-83
2022/06/05 10:06:53;;;;;;;6.57;4.50;;;23.90;99.90;;;;;;5043823;28;20041;-83
2022/06/05 10:09:26;;;;;;;6.57;5.70;;;23.90;99.90;;;;;;5052930;28;20052;-83
2022/06/05 10:11:55;;;;;;;6.28;4.93;;;23.80;99.90;;;;;;5051500;28;20136;-83
2022/06/05 10:14:45;;;;;;;6.57;5.07;;;23.80;99.90;;;;;;5035358;28;20071;-83
2022/06/05 10:17:30;;;;;;;6.72;4.70;;;23.90;99.90;;;;;;5051789;28;20115;-83
2022/06/05 10:20:08;;;;;;;5.65;4.68;;;24.00;99.90;;;;;;5035244;28;20072;-83
2022/06/05 10:22:46;;;;;;;7.30;4.72;;;24.30;99.90;;;;;;5051545;28;20119;-82
2022/06/05 10:25:50;;;;;;;6.25;4.82;;;24.50;99.90;;;;;;5035193;28;20058;-83
2022/06/05 10:28:18;;;;;;;6.95;5.38;;;24.80;99.90;;;;;;5042827;28;20064;-83
2022/06/05 10:31:06;;;;;;;9.73;5.00;;;25.00;99.90;;;;;;5054991;28;20040;-83
2022/06/05 10:33:48;;;;;;;5.40;4.90;;;25.20;99.90;;;;;;5055160;28;20044;-83
2022/06/05 10:36:19;;;;;;;6.78;5.00;;;25.20;99.90;;;;;;5038703;28;20040;-83
2022/06/05 10:39:13;;;;;;;5.95;4.95;;;25.10;99.90;;;;;;5038452;28;20432;-83
2022/06/05 10:41:53;;;;;;;6.07;4.90;;;25.00;99.90;;;;;;5054808;28;20068;-82
2022/06/05 10:44:26;;;;;;;6.00;4.60;;;25.20;99.90;;;;;;5038607;28;20501;-84
2022/06/05 10:47:00;;;;;;;9.05;4.50;;;25.20;99.90;;;;;;5054965;28;20064;-83
2022/06/05 10:49:32;;;;;;;5.18;3.92;;;25.00;99.90;;;;;;5054494;28;20041;-83
2022/06/05 10:52:31;;;;;;;6.60;4.97;;;24.90;99.90;;;;;;5038517;28;20056;-83
2022/06/05 10:55:18;;;;;;;5.47;4.28;;;24.80;99.90;;;;;;5037978;28;20059;-84
2022/06/05 10:58:15;;;;;;;12.68;6.03;;;24.80;99.90;;;;;;5038218;28;20037;-82
2022/06/05 11:01:00;;;;;;;7.43;4.53;;;24.60;99.90;;;;;;5037753;28;20040;-83
2022/06/05 11:04:04;;;;;;;5.45;4.72;;;24.60;99.90;;;;;;5038116;28;20354;-83
2022/06/05 11:07:13;;;;;;;25.95;11.18;;;24.50;99.90;;;;;;5000333;28;20034;-83
2022/06/05 11:09:42;;;;;;;34.03;13.93;;;24.50;99.90;;;;;;4996274;28;20053;-83
2022/06/05 11:15:12;;;;;;;7.25;4.70;;;24.50;99.90;;;;;;5054281;28;20135;-84
2022/06/05 11:17:57;;;;;;;;;;;24.40;99.90;;;;;;5054150;28;20543;-83
2022/06/05 11:20:26;;;;;;;5.60;4.85;;;24.40;99.90;;;;;;5053766;28;20008;-82
2022/06/05 11:22:54;;;;;;;5.28;4.38;;;24.40;99.90;;;;;;5054198;28;20033;-84
2022/06/05 11:25:28;;;;;;;5.07;4.32;;;24.30;99.90;;;;;;5037488;28;20041;-84
2022/06/05 11:28:16;;;;;;;5.45;4.80;;;24.40;99.90;;;;;;5037242;28;20076;-82
2022/06/05 11:31:03;;;;;;;6.18;4.50;;;24.50;99.90;;;;;;5053786;28;20119;-83
2022/06/05 11:33:32;;;;;;;5.28;4.53;;;24.60;99.90;;;;;;5037120;28;20045;-83
2022/06/05 11:36:22;;;;;;;5.28;4.20;;;24.60;99.90;;;;;;5053651;28;20049;-82
2022/06/05 11:38:53;;;;;;;4.70;4.20;;;24.70;99.90;;;;;;5052590;28;20114;-83
2022/06/05 11:41:46;;;;;;;6.07;4.40;;;24.70;99.90;;;;;;5053787;28;20037;-82
2022/06/05 11:44:49;;;;;;;4.72;3.83;;;24.60;99.90;;;;;;5053584;28;20041;-82
2022/06/05 11:47:59;;;;;;;5.15;4.13;;;24.70;99.90;;;;;;5053470;28;20041;-83
2022/06/05 11:50:57;;;;;;;4.75;4.13;;;24.80;99.90;;;;;;5053711;28;20044;-83
2022/06/05 11:53:32;;;;;;;8.82;4.18;;;24.70;99.90;;;;;;5051224;28;20090;-83
2022/06/05 11:56:19;;;;;;;4.93;4.20;;;24.70;99.90;;;;;;5036924;28;20080;-83
2022/06/05 11:58:53;;;;;;;4.63;4.22;;;24.70;99.90;;;;;;5053315;28;20062;-82
2022/06/05 12:01:26;;;;;;;9.30;4.20;;;24.60;99.90;;;;;;5053308;28;20036;-83
2022/06/05 12:04:16;;;;;;;4.78;4.20;;;24.70;99.90;;;;;;5053164;28;20041;-83
2022/06/05 12:06:49;;;;;;;6.20;4.50;;;24.70;99.90;;;;;;5037311;28;20477;-82
2022/06/05 12:09:21;;;;;;;5.03;4.53;;;24.70;99.90;;;;;;5057346;28;20039;-83
2022/06/05 12:12:08;;;;;;;8.10;4.40;;;24.70;99.90;;;;;;5054854;28;20053;-82
2022/06/05 12:14:42;;;;;;;5.85;4.47;;;24.60;99.90;;;;;;5056178;28;20048;-82
2022/06/05 12:17:35;;;;;;;5.60;4.30;;;24.70;99.90;;;;;;5056404;28;20048;-83
2022/06/05 12:20:26;;;;;;;5.07;4.20;;;24.70;99.90;;;;;;5039930;28;20048;-82
2022/06/05 12:22:58;;;;;;;4.72;4.22;;;24.70;99.90;;;;;;5056620;28;20425;-82
2022/06/05 12:25:36;;;;;;;5.78;4.22;;;24.80;99.90;;;;;;5056064;28;20045;-82
2022/06/05 12:28:11;;;;;;;5.25;4.20;;;24.90;99.90;;;;;;5055900;28;20069;-81
2022/06/05 12:30:49;;;;;;;5.93;4.20;;;24.90;99.90;;;;;;5055822;28;20149;-83
2022/06/05 12:33:20;;;;;;;5.75;4.25;;;24.90;99.90;;;;;;5056174;28;20040;-82
2022/06/05 12:35:52;;;;;;;6.15;4.32;;;24.80;99.90;;;;;;5058861;28;20045;-83
2022/06/05 12:38:24;;;;;;;5.28;4.40;;;25.00;99.90;;;;;;5045358;28;20072;-83
2022/06/05 12:41:00;;;;;;;4.25;3.85;;;25.00;99.90;;;;;;5060721;28;20043;-83
2022/06/05 12:43:32;;;;;;;8.27;4.97;;;25.00;99.90;;;;;;5039831;28;20058;-82
2022/06/05 12:46:37;;;;;;;4.47;3.85;;;25.00;99.90;;;;;;5059277;28;20488;-83
2022/06/05 12:49:30;;;;;;;5.78;3.95;;;25.00;99.90;;;;;;5033081;28;20429;-82
2022/06/05 12:52:02;;;;;;;6.03;4.32;;;25.00;99.90;;;;;;5055710;28;20074;-84
2022/06/05 12:54:43;;;;;;;5.53;4.47;;;25.00;99.90;;;;;;5038749;28;20048;-81
2022/06/05 12:57:18;;;;;;;7.03;4.43;;;24.90;99.90;;;;;;5056005;28;20481;-83
2022/06/05 13:00:06;;;;;;;4.65;3.97;;;24.80;99.90;;;;;;5055442;28;20044;-82
2022/06/05 13:02:47;;;;;;;6.32;4.40;;;24.80;99.90;;;;;;5057374;28;20084;-83
2022/06/05 13:05:16;;;;;;;4.78;3.97;;;24.80;99.90;;;;;;5067089;28;20037;-85
2022/06/05 13:07:57;;;;;;;7.47;4.63;;;24.80;99.90;;;;;;5046983;28;20040;-83
2022/06/05 13:10:53;;;;;;;4.68;4.07;;;24.70;99.90;;;;;;5054937;28;20500;-84
2022/06/05 13:13:41;;;;;;;4.60;4.20;;;24.60;99.90;;;;;;5054426;28;20408;-83
2022/06/05 13:16:35;;;;;;;4.68;3.95;;;24.60;99.90;;;;;;5054526;28;20135;-83
2022/06/05 13:19:23;;;;;;;6.65;4.40;;;24.60;99.90;;;;;;5024829;28;20045;-83
2022/06/05 13:22:10;;;;;;;7.30;4.22;;;24.60;99.90;;;;;;5038314;28;20043;-83
2022/06/05 13:24:58;;;;;;;5.45;4.20;;;24.60;99.90;;;;;;5040007;28;20123;-83